createdAt,value
2019-03-25T00:01:07.283Z,6.93
2019-03-25T00:03:38.724Z,6.93
2019-03-25T00:06:10.333Z,7.03
2019-03-25T00:08:41.831Z,6.93
2019-03-25T00:11:13.503Z,6.20
2019-03-25T00:13:45.144Z,6.83
2019-03-25T00:16:16.897Z,6.13
2019-03-25T00:18:48.645Z,6.37
2019-03-25T00:21:20.223Z,5.90
2019-03-25T00:23:51.905Z,6.03
2019-03-25T00:26:23.383Z,5.03
2019-03-25T00:28:54.917Z,5.60
2019-03-25T00:31:26.435Z,5.73
2019-03-25T00:33:57.900Z,5.00
2019-03-25T00:36:29.447Z,6.10
2019-03-25T00:39:00.983Z,5.50
2019-03-25T00:41:33.964Z,5.10
2019-03-25T00:44:05.787Z,5.33
2019-03-25T00:46:37.384Z,6.10
2019-03-25T00:49:08.958Z,5.90
2019-03-25T00:51:40.376Z,5.20
2019-03-25T00:54:11.925Z,4.43
2019-03-25T00:56:43.500Z,4.73
2019-03-25T00:59:15.114Z,4.43
2019-03-25T01:01:46.634Z,4.87
2019-03-25T01:04:19.389Z,4.80
2019-03-25T01:06:50.982Z,4.53
2019-03-25T01:09:25.515Z,5.77
2019-03-25T01:11:57.280Z,5.10
2019-03-25T01:14:28.907Z,5.53
2019-03-25T01:17:00.430Z,4.33
2019-03-25T01:19:31.995Z,5.33
2019-03-25T01:22:03.470Z,4.60
2019-03-25T01:24:34.999Z,4.33
2019-03-25T01:27:06.429Z,4.53
2019-03-25T01:29:37.899Z,4.77
2019-03-25T01:32:09.425Z,4.60
2019-03-25T01:34:40.877Z,4.73
2019-03-25T01:37:12.423Z,4.80
2019-03-25T01:39:44.081Z,4.80
2019-03-25T01:42:15.625Z,4.50
2019-03-25T01:44:47.175Z,5.23
2019-03-25T01:47:18.738Z,4.97
2019-03-25T01:49:50.225Z,4.27
2019-03-25T01:52:21.654Z,4.43
2019-03-25T01:54:53.224Z,4.73
2019-03-25T01:57:24.808Z,4.70
2019-03-25T01:59:56.425Z,4.83
2019-03-25T02:02:27.858Z,4.73
2019-03-25T02:04:59.394Z,4.57
2019-03-25T02:07:30.832Z,5.27
2019-03-25T02:10:02.436Z,4.97
2019-03-25T02:12:34.248Z,4.63
2019-03-25T02:15:06.814Z,4.63
2019-03-25T02:17:38.335Z,5.30
2019-03-25T02:20:10.084Z,4.93
2019-03-25T02:22:42.775Z,5.60
2019-03-25T02:25:24.804Z,5.00
2019-03-25T02:27:47.849Z,4.50
2019-03-25T02:30:19.501Z,4.47
2019-03-25T02:32:50.935Z,5.33
2019-03-25T02:35:22.509Z,5.30
2019-03-25T02:37:54.061Z,5.57
2019-03-25T02:40:25.627Z,5.87
2019-03-25T02:42:57.050Z,5.80
2019-03-25T02:45:28.549Z,5.50
2019-03-25T02:48:00.046Z,6.00
2019-03-25T02:50:32.651Z,4.53
2019-03-25T02:53:04.199Z,5.47
2019-03-25T02:55:41.851Z,5.47
2019-03-25T02:58:09.123Z,5.30
2019-03-25T03:00:41.103Z,5.03
2019-03-25T03:03:12.802Z,4.60
2019-03-25T03:05:44.491Z,4.97
2019-03-25T03:08:16.105Z,4.77
2019-03-25T03:10:47.598Z,4.90
2019-03-25T03:13:19.177Z,4.77
2019-03-25T03:15:50.709Z,5.27
2019-03-25T03:18:22.371Z,5.23
2019-03-25T03:20:53.987Z,5.40
2019-03-25T03:23:26.511Z,6.23
2019-03-25T03:25:58.399Z,5.70
2019-03-25T03:28:30.163Z,5.20
2019-03-25T03:31:01.614Z,5.00
2019-03-25T03:33:33.096Z,4.93
2019-03-25T03:36:05.786Z,4.57
2019-03-25T03:38:37.221Z,5.40
2019-03-25T03:41:08.954Z,4.87
2019-03-25T03:43:40.443Z,5.20
2019-03-25T03:46:12.098Z,5.00
2019-03-25T03:48:43.725Z,4.80
2019-03-25T03:51:15.417Z,5.77
2019-03-25T03:53:47.413Z,5.50
2019-03-25T03:56:20.326Z,6.00
2019-03-25T03:58:52.105Z,5.37
2019-03-25T04:01:23.732Z,5.37
2019-03-25T04:03:55.381Z,5.90
2019-03-25T04:06:27.507Z,5.80
2019-03-25T04:08:59.346Z,6.10
2019-03-25T04:11:31.059Z,6.47
2019-03-25T04:14:03.281Z,6.23
2019-03-25T04:16:34.949Z,5.37
2019-03-25T04:19:06.527Z,6.27
2019-03-25T04:21:38.380Z,5.80
2019-03-25T04:24:10.077Z,6.60
2019-03-25T04:26:41.653Z,6.07
2019-03-25T04:29:13.279Z,5.10
2019-03-25T04:31:44.848Z,5.33
2019-03-25T04:34:16.437Z,5.03
2019-03-25T04:36:48.023Z,5.77
2019-03-25T04:39:19.660Z,4.93
2019-03-25T04:41:51.347Z,4.97
2019-03-25T04:44:23.157Z,6.10
2019-03-25T04:46:54.956Z,5.40
2019-03-25T04:49:27.791Z,5.93
2019-03-25T04:52:22.066Z,6.93
2019-03-25T04:54:56.587Z,5.83
2019-03-25T04:57:28.250Z,5.67
2019-03-25T04:59:59.987Z,5.07
2019-03-25T05:02:31.749Z,4.97
2019-03-25T05:05:03.412Z,4.53
2019-03-25T05:07:35.012Z,5.23
2019-03-25T05:10:07.319Z,5.80
2019-03-25T05:12:38.801Z,5.00
2019-03-25T05:15:10.471Z,5.40
2019-03-25T05:17:42.522Z,6.13
2019-03-25T05:20:14.308Z,6.27
2019-03-25T05:22:45.896Z,6.73
2019-03-25T05:25:18.581Z,6.73
2019-03-25T05:27:50.931Z,7.77
2019-03-25T05:30:23.057Z,8.20
2019-03-25T05:32:54.849Z,8.70
2019-03-25T05:35:26.575Z,6.67
2019-03-25T05:37:58.843Z,7.20
2019-03-25T05:40:30.416Z,6.80
2019-03-25T05:43:01.996Z,7.20
2019-03-25T05:45:33.598Z,7.00
2019-03-25T05:48:05.468Z,7.00
2019-03-25T05:50:37.589Z,6.93
2019-03-25T05:53:09.865Z,7.50
2019-03-25T05:55:42.096Z,9.50
2019-03-25T05:58:14.218Z,10.13
2019-03-25T06:00:46.382Z,9.90
2019-03-25T06:03:18.660Z,10.87
2019-03-25T06:05:50.896Z,11.77
2019-03-25T06:08:23.061Z,11.43
2019-03-25T06:10:55.157Z,12.43
2019-03-25T06:13:27.586Z,11.03
2019-03-25T06:15:59.776Z,12.47
2019-03-25T06:18:32.028Z,15.53
2019-03-25T06:21:04.216Z,52.53
2019-03-25T06:23:37.458Z,26.10
2019-03-25T06:26:11.217Z,27.07
2019-03-25T06:28:43.737Z,13.20
2019-03-25T06:31:16.431Z,11.23
2019-03-25T06:33:49.095Z,11.10
2019-03-25T06:36:21.095Z,10.77
2019-03-25T06:38:53.715Z,10.73
2019-03-25T06:41:26.205Z,12.03
2019-03-25T06:43:58.595Z,10.80
2019-03-25T06:46:31.356Z,9.67
2019-03-25T06:49:03.677Z,9.60
2019-03-25T06:51:35.561Z,13.03
2019-03-25T06:54:08.012Z,11.03
2019-03-25T06:56:39.807Z,11.00
2019-03-25T06:59:12.093Z,11.03
2019-03-25T07:01:45.394Z,11.27
2019-03-25T07:04:18.169Z,11.67
2019-03-25T07:06:50.206Z,12.20
2019-03-25T07:09:22.449Z,12.70
2019-03-25T07:11:54.529Z,11.60
2019-03-25T07:14:27.517Z,10.43
2019-03-25T07:16:59.721Z,10.17
2019-03-25T07:19:32.119Z,11.03
2019-03-25T07:22:03.983Z,10.33
2019-03-25T07:24:36.298Z,10.90
2019-03-25T07:27:09.336Z,15.30
2019-03-25T07:29:41.674Z,9.83
2019-03-25T07:32:13.838Z,13.30
2019-03-25T07:34:46.251Z,11.87
2019-03-25T07:37:18.395Z,10.17
2019-03-25T07:39:50.898Z,11.30
2019-03-25T07:42:24.524Z,10.90
2019-03-25T07:44:57.242Z,14.43
2019-03-25T07:47:29.472Z,11.67
2019-03-25T07:50:01.635Z,10.67
2019-03-25T07:52:34.302Z,11.43
2019-03-25T07:55:06.583Z,11.73
2019-03-25T07:57:47.663Z,11.23
2019-03-25T08:00:14.535Z,11.20
2019-03-25T08:02:47.044Z,11.63
2019-03-25T08:05:19.967Z,12.47
2019-03-25T08:07:51.670Z,13.30
2019-03-25T08:10:42.576Z,12.37
2019-03-25T08:13:15.012Z,12.37
2019-03-25T08:15:47.559Z,13.53
2019-03-25T08:18:20.178Z,12.80
2019-03-25T08:20:52.405Z,8.93
2019-03-25T08:23:24.606Z,9.97
2019-03-25T08:25:57.179Z,11.87
2019-03-25T08:28:29.498Z,10.17
2019-03-25T08:31:01.908Z,11.57
2019-03-25T08:33:50.792Z,10.10
2019-03-25T08:36:46.971Z,15.67
2019-03-25T08:39:21.407Z,10.83
2019-03-25T08:41:53.787Z,10.73
2019-03-25T08:44:26.604Z,9.07
2019-03-25T08:46:58.907Z,10.07
2019-03-25T08:49:32.843Z,9.03
2019-03-25T08:52:05.440Z,8.27
2019-03-25T08:54:38.547Z,6.83
2019-03-25T08:57:10.635Z,7.20
2019-03-25T08:59:42.990Z,7.73
2019-03-25T09:02:15.259Z,7.97
2019-03-25T09:04:47.471Z,8.13
2019-03-25T09:07:19.867Z,8.00
2019-03-25T09:09:52.051Z,6.90
2019-03-25T09:12:24.232Z,6.03
2019-03-25T09:14:56.320Z,6.60
2019-03-25T09:17:28.437Z,6.40
2019-03-25T09:20:00.596Z,6.03
2019-03-25T09:22:32.972Z,5.47
2019-03-25T09:25:04.897Z,5.47
2019-03-25T09:27:36.878Z,5.87
2019-03-25T09:30:10.528Z,5.90
2019-03-25T09:32:43.447Z,4.73
2019-03-25T09:35:16.169Z,5.00
2019-03-25T09:37:48.651Z,4.90
2019-03-25T09:40:21.289Z,4.67
2019-03-25T09:42:54.169Z,6.67
2019-03-25T09:45:26.735Z,5.17
2019-03-25T09:47:59.616Z,5.40
2019-03-25T09:50:32.330Z,5.73
2019-03-25T09:53:05.129Z,4.37
2019-03-25T09:55:37.791Z,4.20
2019-03-25T09:58:10.377Z,4.30
2019-03-25T10:00:42.569Z,3.60
2019-03-25T10:03:15.399Z,4.00
2019-03-25T10:05:47.847Z,3.87
2019-03-25T10:08:20.567Z,3.77
2019-03-25T10:10:53.128Z,4.40
2019-03-25T10:13:25.768Z,3.83
2019-03-25T10:15:58.328Z,4.90
2019-03-25T10:18:31.048Z,4.23
2019-03-25T10:21:03.618Z,3.80
2019-03-25T10:23:37.367Z,4.23
2019-03-25T10:26:09.937Z,4.30
2019-03-25T10:28:48.389Z,4.23
2019-03-25T10:31:17.442Z,3.73
2019-03-25T10:33:50.736Z,4.30
2019-03-25T10:36:23.288Z,5.30
2019-03-25T10:38:56.009Z,4.30
2019-03-25T10:41:28.488Z,4.03
2019-03-25T10:44:01.291Z,3.60
2019-03-25T10:46:33.769Z,3.70
2019-03-25T10:49:06.657Z,4.30
2019-03-25T10:51:51.451Z,4.00
2019-03-25T10:54:24.292Z,4.07
2019-03-25T10:56:57.056Z,4.63
2019-03-25T10:59:29.608Z,4.70
2019-03-25T11:02:02.429Z,4.80
2019-03-25T11:04:35.135Z,4.40
2019-03-25T11:07:07.656Z,4.30
2019-03-25T11:09:40.575Z,4.80
2019-03-25T11:12:13.367Z,8.80
2019-03-25T11:14:45.856Z,3.60
2019-03-25T11:17:18.330Z,3.50
2019-03-25T11:19:51.156Z,3.60
2019-03-25T11:22:24.574Z,3.77
2019-03-25T11:24:59.464Z,2.30
2019-03-25T11:27:32.411Z,3.03
2019-03-25T11:30:08.047Z,3.93
2019-03-25T11:32:42.031Z,4.50
2019-03-25T11:35:16.647Z,4.00
2019-03-25T11:37:50.408Z,9.20
2019-03-25T11:40:24.169Z,6.70
2019-03-25T11:42:56.809Z,59.10
2019-03-25T11:45:29.139Z,7.10
2019-03-25T11:48:01.473Z,4.83
2019-03-25T11:50:33.710Z,4.40
2019-03-25T11:53:05.775Z,3.90
2019-03-25T11:55:51.360Z,4.00
2019-03-25T11:58:36.249Z,4.33
2019-03-25T12:01:08.689Z,14.13
2019-03-25T12:03:40.782Z,6.57
2019-03-25T12:06:13.093Z,4.00
2019-03-25T12:08:45.730Z,4.47
2019-03-25T12:11:18.499Z,4.43
2019-03-25T12:13:51.047Z,4.20
2019-03-25T12:16:23.763Z,4.70
2019-03-25T12:18:56.584Z,4.13
2019-03-25T12:21:28.978Z,4.00
2019-03-25T12:24:02.440Z,4.33
2019-03-25T12:26:34.816Z,3.20
2019-03-25T12:29:07.358Z,4.20
2019-03-25T12:31:40.102Z,4.20
2019-03-25T12:34:12.401Z,3.93
2019-03-25T12:36:44.713Z,7.53
2019-03-25T12:39:21.329Z,4.83
2019-03-25T12:41:53.549Z,5.27
2019-03-25T12:44:25.658Z,7.40
2019-03-25T12:46:57.873Z,6.07
2019-03-25T12:49:32.822Z,3.67
2019-03-25T12:52:04.967Z,4.80
2019-03-25T12:54:37.264Z,5.00
2019-03-25T12:57:09.496Z,4.93
2019-03-25T12:59:41.809Z,5.47
2019-03-25T13:02:14.607Z,5.20
2019-03-25T13:04:46.859Z,5.00
2019-03-25T13:07:19.233Z,5.50
2019-03-25T13:09:51.772Z,4.77
2019-03-25T13:12:24.183Z,7.43
2019-03-25T13:14:56.453Z,6.90
2019-03-25T13:17:29.405Z,5.00
2019-03-25T13:20:02.062Z,5.17
2019-03-25T13:22:34.884Z,4.27
2019-03-25T13:25:08.498Z,3.37
2019-03-25T13:27:40.606Z,4.43
2019-03-25T13:30:13.013Z,5.97
2019-03-25T13:32:45.292Z,2.33
2019-03-25T13:35:18.117Z,7.57
2019-03-25T13:37:50.475Z,9.07
2019-03-25T13:40:23.076Z,6.80
2019-03-25T13:42:55.819Z,8.23
2019-03-25T13:45:28.084Z,7.20
2019-03-25T13:48:00.808Z,8.87
2019-03-25T13:50:34.576Z,8.67
2019-03-25T13:53:06.329Z,7.50
2019-03-25T13:55:38.542Z,8.87
2019-03-25T13:58:11.952Z,9.40
2019-03-25T14:00:45.809Z,9.30
2019-03-25T14:03:18.622Z,12.70
2019-03-25T14:05:51.162Z,22.57
2019-03-25T14:08:23.462Z,9.00
2019-03-25T14:10:57.527Z,6.07
2019-03-25T14:13:29.884Z,6.53
2019-03-25T14:16:03.340Z,5.73
2019-03-25T14:18:36.130Z,6.43
2019-03-25T14:21:08.481Z,5.63
2019-03-25T14:23:41.247Z,5.57
2019-03-25T14:26:13.507Z,5.63
2019-03-25T14:28:45.231Z,7.67
2019-03-25T14:31:17.310Z,7.23
2019-03-25T14:33:49.740Z,6.70
2019-03-25T14:36:21.933Z,6.60
2019-03-25T14:38:54.212Z,6.30
2019-03-25T14:41:26.037Z,6.37
2019-03-25T14:43:58.857Z,9.97
2019-03-25T14:46:30.938Z,12.30
2019-03-25T14:49:04.401Z,12.33
2019-03-25T14:51:36.841Z,26.43
2019-03-25T14:54:09.214Z,9.60
2019-03-25T14:56:41.295Z,8.73
2019-03-25T14:59:13.689Z,7.63
2019-03-25T15:01:45.927Z,7.43
2019-03-25T15:04:18.310Z,5.33
2019-03-25T15:06:50.571Z,4.60
2019-03-25T15:09:23.196Z,4.67
2019-03-25T15:11:55.337Z,4.57
2019-03-25T15:14:27.530Z,4.00
2019-03-25T15:16:59.760Z,4.17
2019-03-25T15:19:32.121Z,4.27
2019-03-25T15:22:05.283Z,4.13
2019-03-25T15:24:37.514Z,3.87
2019-03-25T15:27:09.787Z,4.57
2019-03-25T15:29:42.012Z,4.87
2019-03-25T15:32:13.941Z,5.13
2019-03-25T15:34:46.397Z,8.73
2019-03-25T15:37:18.117Z,10.73
2019-03-25T15:39:51.485Z,9.70
2019-03-25T15:42:23.276Z,8.77
2019-03-25T15:44:55.052Z,9.40
2019-03-25T15:47:27.373Z,9.63
2019-03-25T15:49:59.290Z,10.53
2019-03-25T15:52:31.655Z,9.83
2019-03-25T15:55:03.241Z,9.93
2019-03-25T15:57:35.016Z,9.50
2019-03-25T16:00:10.460Z,10.07
2019-03-25T16:02:42.777Z,9.40
2019-03-25T16:05:15.975Z,9.63
2019-03-25T16:07:47.849Z,7.07
2019-03-25T16:10:21.444Z,7.70
2019-03-25T16:12:53.255Z,7.97
2019-03-25T16:15:42.264Z,61.53
2019-03-25T16:18:33.229Z,48.90
2019-03-25T16:21:05.899Z,18.10
2019-03-25T16:23:37.915Z,9.57
2019-03-25T16:26:09.773Z,8.00
2019-03-25T16:28:43.881Z,8.20
2019-03-25T16:31:17.321Z,7.60
2019-03-25T16:33:49.122Z,8.43
2019-03-25T16:36:21.427Z,7.63
2019-03-25T16:38:53.748Z,13.43
2019-03-25T16:41:25.686Z,39.23
2019-03-25T16:43:58.123Z,31.90
2019-03-25T16:46:30.748Z,27.87
2019-03-25T16:49:02.407Z,17.40
2019-03-25T16:51:34.928Z,18.57
2019-03-25T16:54:07.347Z,22.50
2019-03-25T16:56:39.153Z,34.70
2019-03-25T16:59:11.151Z,15.67
2019-03-25T17:01:44.322Z,14.10
2019-03-25T17:04:16.437Z,16.33
2019-03-25T17:06:48.351Z,13.67
2019-03-25T17:09:20.398Z,16.33
2019-03-25T17:11:52.212Z,20.60
2019-03-25T17:14:23.760Z,20.60
2019-03-25T17:16:56.039Z,20.93
2019-03-25T17:19:28.074Z,27.13
2019-03-25T17:21:59.919Z,24.30
2019-03-25T17:24:31.807Z,29.87
2019-03-25T17:27:03.818Z,25.47
2019-03-25T17:29:36.085Z,192.67
2019-03-25T17:32:08.524Z,86.77
2019-03-25T17:34:40.668Z,87.50
2019-03-25T17:37:12.897Z,41.93
2019-03-25T17:39:45.099Z,44.97
2019-03-25T17:42:18.146Z,57.30
2019-03-25T17:44:49.977Z,107.70
2019-03-25T17:47:22.329Z,57.47
2019-03-25T17:49:54.193Z,81.60
2019-03-25T17:52:26.411Z,62.13
2019-03-25T17:54:58.640Z,33.20
2019-03-25T17:57:31.054Z,35.57
2019-03-25T18:00:03.373Z,22.27
2019-03-25T18:02:37.173Z,17.03
2019-03-25T18:05:10.572Z,17.87
2019-03-25T18:07:42.657Z,14.93
2019-03-25T18:10:14.703Z,12.53
2019-03-25T18:12:47.172Z,10.63
2019-03-25T18:15:19.462Z,10.97
2019-03-25T18:17:51.667Z,19.13
2019-03-25T18:20:23.884Z,22.23
2019-03-25T18:22:56.178Z,27.53
2019-03-25T18:25:28.337Z,21.40
2019-03-25T18:28:00.539Z,20.70
2019-03-25T18:30:36.137Z,23.97
2019-03-25T18:33:08.685Z,19.17
2019-03-25T18:35:40.651Z,19.73
2019-03-25T18:38:13.818Z,19.97
2019-03-25T18:40:46.020Z,22.77
2019-03-25T18:43:18.419Z,17.00
2019-03-25T18:45:50.545Z,12.83
2019-03-25T18:48:22.690Z,13.20
2019-03-25T18:50:54.943Z,17.80
2019-03-25T18:53:27.123Z,18.90
2019-03-25T18:55:59.537Z,15.80
2019-03-25T18:58:32.131Z,28.03
2019-03-25T19:01:04.580Z,30.70
2019-03-25T19:03:38.621Z,39.53
2019-03-25T19:06:11.068Z,23.27
2019-03-25T19:08:44.412Z,15.33
2019-03-25T19:11:16.692Z,12.03
2019-03-25T19:13:48.814Z,8.97
2019-03-25T19:16:21.474Z,8.10
2019-03-25T19:18:53.876Z,4.07
2019-03-25T19:21:27.671Z,5.60
2019-03-25T19:23:59.501Z,6.03
2019-03-25T19:26:31.244Z,6.90
2019-03-25T19:29:03.059Z,7.00
2019-03-25T19:31:34.742Z,6.80
2019-03-25T19:34:06.613Z,7.67
2019-03-25T19:36:38.127Z,6.60
2019-03-25T19:39:10.158Z,8.67
2019-03-25T19:41:42.386Z,7.40
2019-03-25T19:44:14.135Z,9.57
2019-03-25T19:46:46.257Z,7.97
2019-03-25T19:49:18.077Z,6.33
2019-03-25T19:51:49.672Z,5.90
2019-03-25T19:54:21.809Z,6.77
2019-03-25T19:56:53.372Z,8.17
2019-03-25T19:59:25.563Z,6.47
2019-03-25T20:01:57.465Z,6.13
2019-03-25T20:04:29.355Z,6.93
2019-03-25T20:07:01.533Z,6.13
2019-03-25T20:09:36.501Z,6.97
2019-03-25T20:12:08.577Z,6.90
2019-03-25T20:14:40.908Z,7.83
2019-03-25T20:17:13.183Z,7.47
2019-03-25T20:19:45.573Z,5.47
2019-03-25T20:22:17.470Z,6.50
2019-03-25T20:24:50.088Z,7.63
2019-03-25T20:27:24.683Z,8.77
2019-03-25T20:29:57.042Z,8.57
2019-03-25T20:32:31.904Z,9.20
2019-03-25T20:35:02.797Z,8.47
2019-03-25T20:37:34.580Z,8.30
2019-03-25T20:40:06.773Z,6.57
2019-03-25T20:42:39.040Z,6.10
2019-03-25T20:45:10.926Z,7.30
2019-03-25T20:47:43.304Z,4.80
2019-03-25T20:50:41.256Z,4.43
2019-03-25T20:53:16.838Z,6.57
2019-03-25T20:55:48.805Z,6.93
2019-03-25T20:58:20.687Z,4.83
2019-03-25T21:00:57.177Z,5.37
2019-03-25T21:03:30.054Z,4.90
2019-03-25T21:06:01.781Z,5.40
2019-03-25T21:08:33.866Z,4.93
2019-03-25T21:11:05.938Z,4.83
2019-03-25T21:13:37.890Z,5.43
2019-03-25T21:16:09.492Z,4.53
2019-03-25T21:18:41.265Z,5.13
2019-03-25T21:21:13.548Z,5.43
2019-03-25T21:23:45.631Z,3.77
2019-03-25T21:26:17.362Z,3.50
2019-03-25T21:28:48.975Z,4.13
2019-03-25T21:31:20.667Z,3.27
2019-03-25T21:33:52.363Z,3.87
2019-03-25T21:36:24.157Z,3.83
2019-03-25T21:38:55.768Z,4.10
2019-03-25T21:41:27.623Z,3.80
2019-03-25T21:43:59.250Z,4.30
2019-03-25T21:46:30.991Z,4.13
2019-03-25T21:49:02.483Z,4.10
2019-03-25T21:51:34.247Z,4.60
2019-03-25T21:54:05.919Z,4.90
2019-03-25T21:56:37.493Z,4.40
2019-03-25T21:59:09.225Z,3.93
2019-03-25T22:01:40.891Z,4.60
2019-03-25T22:04:12.845Z,4.87
2019-03-25T22:06:44.506Z,5.37
2019-03-25T22:09:16.208Z,5.23
2019-03-25T22:11:48.049Z,5.03
2019-03-25T22:14:19.740Z,4.73
2019-03-25T22:16:51.401Z,4.40
2019-03-25T22:19:23.000Z,4.80
2019-03-25T22:21:54.734Z,4.13
2019-03-25T22:24:26.409Z,3.73
2019-03-25T22:26:58.274Z,4.07
2019-03-25T22:29:30.010Z,3.83
2019-03-25T22:32:01.670Z,4.50
2019-03-25T22:34:33.171Z,5.20
2019-03-25T22:37:04.822Z,20.00
2019-03-25T22:39:36.323Z,5.53
2019-03-25T22:42:08.019Z,6.87
2019-03-25T22:44:46.512Z,4.80
2019-03-25T22:47:19.574Z,24.80
2019-03-25T22:49:51.269Z,11.63
2019-03-25T22:52:22.838Z,5.73
2019-03-25T22:54:54.716Z,4.30
2019-03-25T22:57:26.638Z,2.20
2019-03-25T22:59:58.464Z,2.90
2019-03-25T23:02:30.189Z,3.20
2019-03-25T23:05:01.924Z,3.80
2019-03-25T23:07:33.707Z,3.90
2019-03-25T23:10:05.667Z,3.90
2019-03-25T23:12:38.328Z,3.50
2019-03-25T23:15:09.999Z,3.37
2019-03-25T23:17:41.584Z,3.90
2019-03-25T23:20:13.287Z,4.20
2019-03-25T23:22:44.997Z,5.40
2019-03-25T23:25:16.642Z,6.20
2019-03-25T23:27:48.498Z,4.63
2019-03-25T23:30:20.267Z,3.60
2019-03-25T23:32:51.974Z,3.30
2019-03-25T23:35:23.465Z,4.43
2019-03-25T23:37:55.129Z,5.10
2019-03-25T23:40:26.706Z,4.67
2019-03-25T23:42:59.271Z,4.43
2019-03-25T23:45:30.755Z,4.50
2019-03-25T23:48:02.452Z,6.90
2019-03-25T23:50:33.978Z,5.03
2019-03-25T23:53:05.705Z,5.10
2019-03-25T23:55:37.292Z,5.43
2019-03-25T23:58:09.599Z,5.80
